Time;durP1;ratioP1;P1;durP2;ratioP2;P2;SDS_P1;SDS_P2;PMS_P1;PMS_P2;Temp;Humidity;BMP_temperature;BMP_pressure;BME280_temperature;BME280_humidity;BME280_pressure;Samples;Min_cycle;Max_cycle;Signal;HPM_P1;HPM_P2
2021/11/29 00:01:00;;;;;;;8.07;7.37;;;;;;;3.54;82.51;98885.63;5059262;28;20455;-76
2021/11/29 00:03:28;;;;;;;8.95;8.02;;;;;;;3.54;82.69;98884.78;5086346;28;20498;-77
2021/11/29 00:05:53;;;;;;;7.68;6.97;;;;;;;3.50;82.25;98876.41;5065901;28;20520;-76
2021/11/29 00:08:19;;;;;;;8.73;7.83;;;;;;;3.35;82.60;98867.28;5079159;28;20471;-76
2021/11/29 00:10:44;;;;;;;8.90;8.00;;;;;;;3.25;82.44;98869.75;5075598;28;20390;-76
2021/11/29 00:13:09;;;;;;;10.20;9.07;;;;;;;3.29;82.52;98876.25;5082304;28;20407;-76
2021/11/29 00:15:35;;;;;;;9.97;8.97;;;;;;;3.28;82.57;98877.28;5056222;28;20424;-76
2021/11/29 00:18:02;;;;;;;12.13;10.02;;;;;;;3.27;82.58;98886.38;5074519;28;20400;-76
2021/11/29 00:20:27;;;;;;;15.07;11.45;;;;;;;3.23;83.16;98880.66;5074163;28;20423;-76
2021/11/29 00:22:53;;;;;;;12.27;10.80;;;;;;;3.23;83.11;98891.38;5079948;28;20479;-76
2021/11/29 00:25:18;;;;;;;11.73;10.53;;;;;;;3.24;83.44;98900.22;5073910;28;20462;-76
2021/11/29 00:27:44;;;;;;;14.07;11.43;;;;;;;3.21;83.51;98927.47;5087526;28;20389;-76
2021/11/29 00:30:12;;;;;;;15.07;12.20;;;;;;;3.23;83.99;98934.22;5091886;28;20398;-77
2021/11/29 00:32:38;;;;;;;12.23;10.82;;;;;;;3.29;83.93;98941.31;5073137;28;20877;-76
2021/11/29 00:35:05;;;;;;;12.75;10.73;;;;;;;3.35;83.88;98935.03;5082654;28;20491;-76
2021/11/29 00:37:30;;;;;;;10.13;9.13;;;;;;;3.36;83.54;98936.63;5079536;28;20896;-76
2021/11/29 00:39:56;;;;;;;10.43;9.32;;;;;;;3.39;83.31;98938.06;5077882;28;20421;-76
2021/11/29 00:42:21;;;;;;;10.23;9.23;;;;;;;3.41;83.14;98943.97;5078027;28;20401;-76
2021/11/29 00:44:47;;;;;;;10.77;9.53;;;;;;;3.38;82.74;98941.78;5068835;28;20485;-76
2021/11/29 00:47:12;;;;;;;11.00;9.90;;;;;;;3.31;82.38;98947.25;5080837;28;20495;-76
2021/11/29 00:49:38;;;;;;;10.57;9.47;;;;;;;3.30;82.81;98945.59;5073526;28;20457;-76
2021/11/29 00:52:03;;;;;;;13.27;9.73;;;;;;;3.32;82.53;98951.56;5087652;28;20914;-76
2021/11/29 00:54:29;;;;;;;10.70;9.60;;;;;;;3.32;82.46;98956.09;5080488;28;20505;-76
2021/11/29 00:56:54;;;;;;;12.68;10.40;;;;;;;3.33;82.25;98953.16;5064741;28;20736;-76
2021/11/29 00:59:19;;;;;;;11.30;9.57;;;;;;;3.36;81.84;98962.63;5086621;28;20401;-76
2021/11/29 01:01:45;;;;;;;12.53;10.33;;;;;;;3.38;82.21;98958.66;5084279;28;20419;-76
2021/11/29 01:04:11;;;;;;;13.17;10.87;;;;;;;3.38;82.52;98965.88;5074068;28;20400;-76
2021/11/29 01:06:37;;;;;;;12.35;10.15;;;;;;;3.37;82.47;98969.59;5081067;28;20435;-76
2021/11/29 01:09:04;;;;;;;12.23;10.80;;;;;;;3.31;82.35;98976.69;5079253;28;20384;-76
2021/11/29 01:11:29;;;;;;;21.30;15.02;;;;;;;3.20;82.30;98979.38;5077685;28;20498;-76
2021/11/29 01:13:54;;;;;;;15.90;12.20;;;;;;;3.13;82.64;98979.47;5077979;28;20478;-76
2021/11/29 01:16:20;;;;;;;16.58;13.20;;;;;;;3.09;82.41;98973.00;5066524;28;20398;-76
2021/11/29 01:18:46;;;;;;;15.80;13.53;;;;;;;3.02;82.63;98983.81;5080236;28;20399;-76
2021/11/29 01:21:11;;;;;;;19.83;15.20;;;;;;;2.97;82.92;98989.03;5059327;28;20406;-76
2021/11/29 01:23:36;;;;;;;15.47;12.27;;;;;;;2.94;82.95;98994.84;5085521;28;20797;-76
2021/11/29 01:26:02;;;;;;;12.40;11.00;;;;;;;2.93;83.59;99000.44;5072899;28;20423;-76
2021/11/29 01:28:27;;;;;;;12.05;10.45;;;;;;;2.99;83.46;99002.19;5084345;28;20477;-76
2021/11/29 01:30:53;;;;;;;12.20;10.90;;;;;;;3.05;83.41;99001.25;5081543;28;20810;-76
2021/11/29 01:33:18;;;;;;;12.30;10.23;;;;;;;3.07;83.10;99004.50;5073644;28;20881;-76
2021/11/29 01:35:43;;;;;;;10.77;9.77;;;;;;;3.07;83.34;99010.69;5075539;28;20384;-76
2021/11/29 01:38:09;;;;;;;11.05;9.93;;;;;;;3.08;82.98;99008.81;5089474;28;20404;-76
2021/11/29 01:40:36;;;;;;;12.02;10.73;;;;;;;3.12;83.07;99004.63;5072286;28;20412;-76
2021/11/29 01:43:07;;;;;;;12.15;10.82;;;;;;;3.11;83.02;99001.16;5089083;28;20389;-76
2021/11/29 01:45:38;;;;;;;14.70;10.63;;;;;;;3.09;82.28;99007.78;5078842;28;20853;-76
2021/11/29 01:48:03;;;;;;;12.35;11.05;;;;;;;3.08;82.28;99001.59;5081840;28;20768;-76
2021/11/29 01:50:29;;;;;;;13.38;11.07;;;;;;;3.07;82.19;99005.31;5077106;28;20394;-76
2021/11/29 01:52:54;;;;;;;12.02;10.80;;;;;;;3.05;82.39;99006.59;5072858;28;20410;-76
2021/11/29 01:55:21;;;;;;;13.63;11.30;;;;;;;3.04;82.14;99019.16;5086442;28;20398;-76
2021/11/29 01:57:46;;;;;;;13.25;11.45;;;;;;;3.04;82.14;99013.81;5076593;28;20778;-76
2021/11/29 02:00:17;;;;;;;14.13;12.63;;;;;;;3.04;82.37;99015.69;5086060;28;20402;-76
2021/11/29 02:02:46;;;;;;;13.27;11.83;;;;;;;3.07;82.27;99018.72;5074379;28;20406;-76
2021/11/29 02:05:12;;;;;;;13.30;11.90;;;;;;;3.07;81.90;99018.72;5074415;28;20502;-76
2021/11/29 02:07:40;;;;;;;14.48;12.30;;;;;;;3.07;81.59;99015.22;5073053;28;20411;-76
2021/11/29 02:10:08;;;;;;;14.23;12.73;;;;;;;3.09;81.46;99029.19;5072381;28;20407;-76
2021/11/29 02:12:33;;;;;;;14.88;12.57;;;;;;;3.10;81.39;99030.81;5078630;28;20888;-76
2021/11/29 02:14:58;;;;;;;16.10;12.97;;;;;;;3.09;81.28;99023.84;5071902;28;20492;-76
2021/11/29 02:17:23;;;;;;;14.77;13.10;;;;;;;3.09;81.45;99027.34;5054442;28;20802;-76
2021/11/29 02:19:49;;;;;;;14.20;12.43;;;;;;;3.10;81.56;99036.16;5075649;28;20407;-76
2021/11/29 02:22:14;;;;;;;15.57;12.73;;;;;;;3.11;82.05;99038.63;5075771;28;20410;-76
2021/11/29 02:24:40;;;;;;;15.83;12.90;;;;;;;3.12;81.96;99036.75;5075466;28;20427;-76
2021/11/29 02:27:09;;;;;;;15.50;13.85;;;;;;;3.13;82.13;99044.53;5072614;28;20747;-76
2021/11/29 02:29:35;;;;;;;15.30;13.60;;;;;;;3.17;82.04;99039.53;5053950;28;20728;-76
2021/11/29 02:32:01;;;;;;;16.23;13.50;;;;;;;3.20;81.93;99033.72;5079068;28;20400;-76
2021/11/29 02:34:30;;;;;;;16.13;13.37;;;;;;;3.20;82.12;99039.06;5072309;28;20452;-76
2021/11/29 02:36:59;;;;;;;14.63;12.83;;;;;;;3.20;81.56;99041.75;5081072;28;20428;-76
2021/11/29 02:39:25;;;;;;;16.55;13.30;;;;;;;3.17;81.88;99042.22;5071442;28;20411;-76
2021/11/29 02:41:54;;;;;;;15.27;13.27;;;;;;;3.13;82.29;99049.91;5082250;28;20462;-76
2021/11/29 02:44:19;;;;;;;15.50;13.57;;;;;;;3.09;82.63;99046.06;5078909;28;20860;-76
2021/11/29 02:46:45;;;;;;;17.10;13.17;;;;;;;3.09;82.59;99045.25;5083474;28;20392;-77
2021/11/29 02:49:13;;;;;;;15.27;13.48;;;;;;;3.09;82.59;99053.28;5076666;28;20395;-76
2021/11/29 02:51:43;;;;;;;17.30;13.38;;;;;;;3.09;82.65;99048.75;5053516;28;20411;-76
2021/11/29 02:54:08;;;;;;;17.60;13.05;;;;;;;3.11;83.05;99060.03;5071207;28;20403;-76
2021/11/29 02:56:38;;;;;;;15.20;13.33;;;;;;;3.12;82.67;99061.66;5071950;28;20402;-76
2021/11/29 02:59:09;;;;;;;15.47;13.30;;;;;;;3.11;83.05;99060.03;5071848;28;20743;-76
2021/11/29 03:01:36;;;;;;;14.38;12.20;;;;;;;3.16;82.53;99070.06;5077478;28;20411;-77
2021/11/29 03:04:02;;;;;;;17.08;14.07;;;;;;;3.19;82.56;99076.81;5070672;28;20771;-76
2021/11/29 03:06:27;;;;;;;14.67;12.60;;;;;;;3.16;82.66;99077.25;5078894;28;20391;-76
2021/11/29 03:08:52;;;;;;;17.17;13.77;;;;;;;3.19;82.83;99082.97;5071324;28;20449;-76
2021/11/29 03:11:18;;;;;;;15.52;12.90;;;;;;;3.16;82.67;99087.97;5087513;28;20389;-76
2021/11/29 03:13:44;;;;;;;16.77;13.02;;;;;;;3.15;82.99;99081.81;5075075;28;20426;-76
2021/11/29 03:16:10;;;;;;;14.88;13.27;;;;;;;3.19;82.39;99099.03;5083908;28;20401;-76
2021/11/29 03:18:38;;;;;;;16.47;13.13;;;;;;;3.18;82.14;99102.75;5053298;28;20403;-76
2021/11/29 03:21:06;;;;;;;15.43;13.48;;;;;;;3.18;82.67;99104.59;5069951;28;20934;-76
2021/11/29 03:23:31;;;;;;;20.40;15.30;;;;;;;3.19;82.29;99104.41;5074427;28;20439;-76
2021/11/29 03:25:58;;;;;;;20.90;15.10;;;;;;;3.23;82.51;99102.88;5088073;28;20397;-76
2021/11/29 03:28:23;;;;;;;21.80;14.32;;;;;;;3.19;82.39;99100.91;5080728;28;20388;-76
2021/11/29 03:30:49;;;;;;;17.52;13.98;;;;;;;3.21;82.46;99109.50;5086382;28;20721;-76
2021/11/29 03:33:15;;;;;;;17.37;13.70;;;;;;;3.22;82.33;99109.28;5076401;28;20422;-76
2021/11/29 03:35:41;;;;;;;17.35;14.15;;;;;;;3.14;82.47;99118.44;5080200;28;20406;-76
2021/11/29 03:38:07;;;;;;;18.75;14.25;;;;;;;3.11;82.88;99123.44;5081609;28;20422;-76
2021/11/29 03:40:33;;;;;;;16.33;14.15;;;;;;;3.10;82.84;99124.47;5080312;28;20473;-76
2021/11/29 03:42:58;;;;;;;16.87;14.33;;;;;;;3.06;82.81;99126.78;5075907;28;20411;-76
2021/11/29 03:45:24;;;;;;;18.37;14.27;;;;;;;3.05;83.06;99124.38;5080163;28;20382;-77
2021/11/29 03:47:50;;;;;;;17.95;15.00;;;;;;;3.04;83.03;99123.56;5085879;28;20376;-76
2021/11/29 03:50:15;;;;;;;17.85;14.73;;;;;;;3.05;83.28;99127.03;5087906;28;20394;-76
2021/11/29 03:52:40;;;;;;;19.80;14.90;;;;;;;3.03;82.87;99127.25;5088812;28;20386;-76
2021/11/29 03:55:06;;;;;;;17.27;14.20;;;;;;;3.12;82.78;99135.78;5074622;28;20877;-76
2021/11/29 03:57:32;;;;;;;17.35;15.05;;;;;;;3.16;82.60;99138.84;5074196;28;20414;-76
2021/11/29 03:59:57;;;;;;;19.20;14.57;;;;;;;3.20;82.67;99139.97;5086518;28;20390;-76
2021/11/29 04:02:22;;;;;;;21.23;17.03;;;;;;;3.24;82.09;99141.16;5079064;28;20398;-76
2021/11/29 04:04:48;;;;;;;21.30;16.30;;;;;;;3.20;82.12;99146.16;5090257;28;20404;-76
2021/11/29 04:07:13;;;;;;;25.95;19.13;;;;;;;3.18;81.92;99142.91;5074683;28;20396;-76
2021/11/29 04:09:38;;;;;;;24.67;17.80;;;;;;;3.15;82.21;99146.03;5077811;28;20417;-76
2021/11/29 04:12:05;;;;;;;19.73;15.30;;;;;;;3.16;82.02;99147.69;5074045;28;20403;-76
2021/11/29 04:14:31;;;;;;;22.77;16.27;;;;;;;3.14;81.84;99152.44;5089788;28;22132;-76
2021/11/29 04:16:56;;;;;;;20.92;15.80;;;;;;;3.13;81.92;99153.47;5075685;28;20406;-76
2021/11/29 04:19:21;;;;;;;18.67;14.67;;;;;;;3.01;81.89;99164.16;5084073;28;20396;-76
2021/11/29 04:21:47;;;;;;;19.90;15.52;;;;;;;3.04;81.81;99158.34;5080676;28;20431;-76
2021/11/29 04:24:13;;;;;;;22.60;16.88;;;;;;;3.06;81.89;99163.47;5086086;28;21228;-76
2021/11/29 04:26:40;;;;;;;18.93;15.03;;;;;;;3.04;81.90;99163.69;5085501;28;20410;-76
2021/11/29 04:29:16;;;;;;;18.90;15.57;;;;;;;3.04;82.22;99168.22;5083839;28;20448;-76
2021/11/29 04:31:42;;;;;;;22.65;16.42;;;;;;;3.04;82.03;99174.41;5088471;28;20668;-77
2021/11/29 04:34:08;;;;;;;23.83;17.20;;;;;;;3.01;82.09;99172.19;5078041;28;20382;-76
2021/11/29 04:36:34;;;;;;;23.30;16.15;;;;;;;3.02;82.58;99175.69;5080460;28;20410;-76
2021/11/29 04:39:00;;;;;;;21.60;16.58;;;;;;;3.02;82.21;99181.03;5081493;28;20501;-76
2021/11/29 04:41:25;;;;;;;21.10;15.18;;;;;;;3.03;82.31;99196.06;5079380;28;20477;-76
2021/11/29 04:43:51;;;;;;;21.13;16.43;;;;;;;2.99;82.25;99193.00;5088403;28;20876;-76
2021/11/29 04:46:17;;;;;;;21.17;16.37;;;;;;;2.95;82.89;99199.84;5077627;28;20894;-76
2021/11/29 04:48:42;;;;;;;24.05;18.10;;;;;;;2.89;82.71;99194.59;5078456;28;20403;-76
2021/11/29 04:51:08;;;;;;;21.07;17.03;;;;;;;2.82;83.01;99197.34;5073486;28;20392;-76
2021/11/29 04:53:33;;;;;;;26.33;18.20;;;;;;;2.80;82.96;99202.09;5079318;28;20462;-76
2021/11/29 04:55:58;;;;;;;25.88;17.65;;;;;;;2.79;83.18;99205.81;5055607;28;20392;-76
2021/11/29 04:58:24;;;;;;;24.40;18.07;;;;;;;2.82;83.10;99209.91;5073345;28;20441;-76
2021/11/29 05:00:51;;;;;;;25.60;18.90;;;;;;;2.76;82.96;99216.16;5073114;28;20441;-76
2021/11/29 05:03:18;;;;;;;27.17;18.57;;;;;;;2.68;83.22;99227.16;5088840;28;20439;-76
2021/11/29 05:05:43;;;;;;;25.88;18.38;;;;;;;2.61;83.41;99237.91;5056381;28;20416;-77
2021/11/29 05:08:08;;;;;;;26.55;18.42;;;;;;;2.55;83.19;99239.63;5079110;28;20476;-76
2021/11/29 05:10:33;;;;;;;26.67;18.53;;;;;;;2.52;83.71;99242.75;5079064;28;20484;-76
2021/11/29 05:12:59;;;;;;;24.83;18.30;;;;;;;2.51;84.02;99242.97;5079245;28;20943;-76
2021/11/29 05:15:24;;;;;;;26.55;18.65;;;;;;;2.52;83.84;99247.28;5076428;28;20494;-77
2021/11/29 05:17:49;;;;;;;27.23;18.80;;;;;;;2.56;83.88;99253.84;5074193;28;20812;-77
2021/11/29 05:20:14;;;;;;;29.13;18.37;;;;;;;2.59;83.72;99254.22;5081226;28;20635;-77
2021/11/29 05:22:40;;;;;;;23.40;17.75;;;;;;;2.60;83.60;99252.34;5072831;28;20399;-75
2021/11/29 05:25:06;;;;;;;25.10;17.97;;;;;;;2.63;83.58;99264.47;5073260;28;20404;-76
2021/11/29 05:27:31;;;;;;;25.00;17.30;;;;;;;2.63;83.54;99262.59;5076135;28;20469;-76
2021/11/29 05:29:56;;;;;;;25.43;19.00;;;;;;;2.68;83.35;99267.28;5080270;28;20438;-76
2021/11/29 05:32:21;;;;;;;28.03;18.07;;;;;;;2.70;82.91;99266.00;5055543;28;20463;-76
2021/11/29 05:34:47;;;;;;;24.20;18.27;;;;;;;2.72;82.87;99274.63;5061104;28;20401;-76
2021/11/29 05:37:12;;;;;;;27.83;19.27;;;;;;;2.65;82.68;99273.88;5056953;28;20435;-76
2021/11/29 05:39:37;;;;;;;29.17;19.37;;;;;;;2.56;82.97;99273.38;5084839;28;20553;-76
2021/11/29 05:42:03;;;;;;;30.90;19.83;;;;;;;2.47;82.94;99280.03;5071243;28;20502;-76
2021/11/29 05:44:28;;;;;;;30.02;20.33;;;;;;;2.37;83.20;99282.41;5086897;28;20398;-75
2021/11/29 05:46:54;;;;;;;29.03;20.90;;;;;;;2.28;83.45;99280.22;5077672;28;20408;-75
2021/11/29 05:49:19;;;;;;;34.70;24.37;;;;;;;2.21;83.57;99288.31;5083433;28;20437;-76
2021/11/29 05:51:44;;;;;;;39.00;24.27;;;;;;;2.16;83.57;99296.19;5072411;28;20421;-76
2021/11/29 05:54:13;;;;;;;32.08;21.27;;;;;;;2.14;83.46;99292.09;5093268;28;20393;-76
2021/11/29 05:56:47;;;;;;;44.80;26.75;;;;;;;2.12;83.49;99294.16;5089895;28;20672;-76
2021/11/29 05:59:12;;;;;;;36.47;22.63;;;;;;;2.06;83.64;99296.66;5067626;28;20398;-76
2021/11/29 06:01:38;;;;;;;34.00;21.83;;;;;;;2.07;84.08;99298.28;5088565;28;20419;-76
2021/11/29 06:04:03;;;;;;;39.13;23.67;;;;;;;2.04;83.64;99306.75;5076343;28;20437;-76
2021/11/29 06:06:32;;;;;;;33.83;21.55;;;;;;;2.00;83.90;99313.56;5080108;28;20877;-76
2021/11/29 06:09:38;;;;;;;35.40;22.70;;;;;;;1.98;84.04;99309.47;5072122;28;20426;-76
2021/11/29 06:12:04;;;;;;;33.40;21.98;;;;;;;1.96;83.85;99317.72;5068554;28;20912;-75
2021/11/29 06:14:29;;;;;;;41.63;23.63;;;;;;;1.91;83.85;99320.19;5073843;28;20408;-76
2021/11/29 06:16:54;;;;;;;37.57;23.90;;;;;;;1.90;84.02;99326.59;5088707;28;20864;-76
2021/11/29 06:19:20;;;;;;;36.23;23.20;;;;;;;1.91;84.02;99330.88;5082049;28;20392;-76
2021/11/29 06:21:45;;;;;;;33.60;22.65;;;;;;;1.89;84.31;99335.63;5085587;28;20413;-76
2021/11/29 06:24:10;;;;;;;32.00;21.50;;;;;;;1.90;84.23;99355.97;5060667;28;20749;-76
2021/11/29 06:26:36;;;;;;;34.77;22.03;;;;;;;1.91;83.73;99349.59;5054576;28;20391;-76
2021/11/29 06:29:01;;;;;;;37.93;21.60;;;;;;;1.87;84.12;99356.41;5080348;28;20394;-76
2021/11/29 06:31:26;;;;;;;36.47;21.98;;;;;;;1.87;84.24;99358.25;5088114;28;20489;-75
2021/11/29 06:33:52;;;;;;;32.45;20.85;;;;;;;1.90;84.29;99366.66;5075477;28;20406;-75
2021/11/29 06:36:17;;;;;;;31.40;20.83;;;;;;;1.95;84.26;99366.84;5075271;28;20429;-76
2021/11/29 06:38:46;;;;;;;32.17;21.60;;;;;;;1.99;84.54;99377.91;5091328;28;20471;-76
2021/11/29 06:41:11;;;;;;;33.15;21.33;;;;;;;2.01;84.23;99375.81;5081171;28;20434;-76
2021/11/29 06:43:37;;;;;;;30.03;21.30;;;;;;;1.97;84.05;99391.50;5071521;28;20871;-76
2021/11/29 06:46:02;;;;;;;34.03;21.98;;;;;;;1.92;83.73;99391.31;5088006;28;20429;-76
2021/11/29 06:48:28;;;;;;;34.10;23.25;;;;;;;1.87;83.62;99385.81;5071965;28;20400;-76
2021/11/29 06:50:54;;;;;;;34.92;22.00;;;;;;;1.87;83.55;99403.69;5082159;28;20432;-76
2021/11/29 06:53:21;;;;;;;43.25;24.23;;;;;;;1.85;83.68;99405.72;5077136;28;20392;-75
2021/11/29 06:55:47;;;;;;;34.30;22.88;;;;;;;1.81;83.84;99413.34;5087281;28;20466;-76
2021/11/29 06:58:13;;;;;;;37.03;23.65;;;;;;;1.76;83.62;99418.53;5070006;28;20445;-75
2021/11/29 07:00:38;;;;;;;38.87;24.60;;;;;;;1.73;83.88;99421.63;5080502;28;20415;-76
2021/11/29 07:03:03;;;;;;;45.03;28.43;;;;;;;1.70;83.95;99437.25;5098627;28;20750;-75
2021/11/29 07:05:29;;;;;;;54.10;34.10;;;;;;;1.66;83.98;99447.53;5064392;28;20557;-76
2021/11/29 07:07:55;;;;;;;60.72;35.85;;;;;;;1.65;84.33;99442.44;5087837;28;20405;-75
2021/11/29 07:10:24;;;;;;;55.38;34.13;;;;;;;1.60;84.37;99453.72;5081961;28;20494;-76
2021/11/29 07:12:51;;;;;;;52.13;30.77;;;;;;;1.55;84.63;99456.19;5076132;28;20392;-76
2021/11/29 07:15:17;;;;;;;50.75;28.55;;;;;;;1.56;84.82;99458.66;5071364;28;20400;-75
2021/11/29 07:18:48;;;;;;;45.97;27.92;;;;;;;1.56;84.55;99464.00;5075451;28;20392;-76
2021/11/29 07:21:09;;;;;;;47.97;28.70;;;;;;;1.55;84.53;99462.38;5085149;28;20470;-76
2021/11/29 07:23:35;;;;;;;49.17;28.00;;;;;;;1.54;84.75;99470.59;5072230;28;20488;-75
2021/11/29 07:26:00;;;;;;;41.38;25.00;;;;;;;1.54;84.80;99473.28;5082012;28;20411;-76
2021/11/29 07:28:26;;;;;;;44.87;24.40;;;;;;;1.56;85.32;99477.38;5076465;28;20403;-76
2021/11/29 07:30:51;;;;;;;38.72;23.75;;;;;;;1.63;84.93;99485.34;5088461;28;20914;-76
2021/11/29 07:33:16;;;;;;;36.07;23.37;;;;;;;1.66;84.88;99481.44;5079692;28;20399;-76
2021/11/29 07:35:42;;;;;;;36.77;22.93;;;;;;;1.68;84.59;99484.72;5079413;28;20396;-76
2021/11/29 07:38:07;;;;;;;39.47;24.80;;;;;;;1.71;84.91;99492.31;5096994;28;20399;-76
2021/11/29 07:40:32;;;;;;;43.20;24.73;;;;;;;1.71;85.00;99495.81;5096198;28;20904;-77
2021/11/29 07:43:00;;;;;;;38.43;24.57;;;;;;;1.76;84.88;99495.16;5078713;28;20433;-76
2021/11/29 07:45:26;;;;;;;43.70;27.50;;;;;;;1.78;84.70;99496.59;5082091;28;20396;-76
2021/11/29 07:47:52;;;;;;;47.05;28.10;;;;;;;1.82;84.42;99503.16;5090652;28;20900;-76
2021/11/29 07:50:18;;;;;;;47.38;27.23;;;;;;;1.82;84.73;99513.00;5082045;28;20906;-76
2021/11/29 07:52:45;;;;;;;47.65;27.27;;;;;;;1.82;84.89;99515.69;5086320;28;20948;-76
2021/11/29 07:55:12;;;;;;;46.33;28.08;;;;;;;1.84;84.71;99509.13;5074056;28;21184;-76
2021/11/29 07:57:38;;;;;;;42.22;26.58;;;;;;;1.79;84.86;99516.09;5081220;28;20402;-76
2021/11/29 08:00:10;;;;;;;42.10;24.23;;;;;;;1.80;85.49;99509.75;5052221;28;20399;-76
2021/11/29 08:02:36;;;;;;;40.85;24.98;;;;;;;1.81;85.51;99519.41;5087164;28;20451;-76
2021/11/29 08:05:02;;;;;;;37.03;23.15;;;;;;;1.89;85.38;99522.66;5058447;28;20881;-76
2021/11/29 08:07:28;;;;;;;36.35;23.30;;;;;;;1.98;84.98;99523.22;5089286;28;20398;-76
2021/11/29 08:09:54;;;;;;;36.78;23.73;;;;;;;2.06;84.77;99525.66;5077613;28;20403;-76
2021/11/29 08:12:46;;;;;;;33.55;22.17;;;;;;;2.17;84.88;99538.38;5086369;28;20895;-77
2021/11/29 08:15:12;;;;;;;33.25;21.92;;;;;;;2.33;84.52;99531.69;5036698;28;20420;-76
2021/11/29 08:17:37;;;;;;;32.60;21.20;;;;;;;2.57;84.53;99544.28;5085549;28;20394;-76
2021/11/29 08:20:05;;;;;;;28.38;19.58;;;;;;;2.86;83.87;99538.34;5094206;28;20386;-77
2021/11/29 08:22:30;;;;;;;25.63;17.60;;;;;;;3.22;82.63;99539.50;5073734;28;20805;-77
2021/11/29 08:24:55;;;;;;;23.97;16.50;;;;;;;3.69;81.64;99538.00;5074417;28;20391;-76
2021/11/29 08:27:21;;;;;;;23.58;16.42;;;;;;;4.19;79.29;99542.97;5081540;28;20423;-76
2021/11/29 08:29:46;;;;;;;22.07;15.07;;;;;;;4.56;75.90;99543.72;5073838;28;20393;-76
2021/11/29 08:32:12;;;;;;;21.77;15.30;;;;;;;4.80;74.73;99541.09;5090318;28;20382;-77
2021/11/29 08:34:39;;;;;;;20.93;14.70;;;;;;;4.89;74.29;99547.75;5080324;28;20378;-77
2021/11/29 08:37:06;;;;;;;19.17;13.37;;;;;;;4.66;75.13;99543.97;5083617;28;20388;-76
2021/11/29 08:39:31;;;;;;;18.48;13.55;;;;;;;4.62;75.42;99540.09;5062247;28;20444;-76
2021/11/29 08:41:56;;;;;;;16.80;12.60;;;;;;;4.67;74.78;99547.47;5083962;28;20445;-74
2021/11/29 08:44:22;;;;;;;19.67;13.00;;;;;;;4.54;74.11;99563.78;5073500;28;20388;-76
2021/11/29 08:46:48;;;;;;;20.38;13.23;;;;;;;3.95;75.79;99578.72;5083084;28;20385;-77
2021/11/29 08:49:18;;;;;;;15.88;12.10;;;;;;;3.55;77.34;99577.50;5079962;28;20886;-77
2021/11/29 08:51:44;;;;;;;18.17;13.33;;;;;;;3.47;78.13;99577.78;5073861;28;20483;-76
2021/11/29 08:54:11;;;;;;;23.60;14.37;;;;;;;3.38;78.47;99581.78;5078894;28;20500;-76
2021/11/29 08:56:36;;;;;;;22.92;13.30;;;;;;;3.49;78.50;99600.63;5084288;28;20798;-76
2021/11/29 08:59:02;;;;;;;25.47;14.40;;;;;;;3.70;78.04;99609.28;5073118;28;20465;-76
2021/11/29 09:01:27;;;;;;;16.23;11.07;;;;;;;3.84;75.85;99603.59;5086902;28;20417;-76
2021/11/29 09:03:52;;;;;;;18.03;12.20;;;;;;;3.77;76.17;99610.88;5077782;28;20397;-76
2021/11/29 09:06:18;;;;;;;18.20;11.90;;;;;;;3.79;76.21;99611.47;5074326;28;20390;-76
2021/11/29 09:12:14;;;;;;;17.20;11.18;;;;;;;4.14;75.45;99622.44;5063726;28;20398;-76
2021/11/29 09:14:39;;;;;;;19.38;11.48;;;;;;;4.09;76.04;99628.47;5074992;28;20868;-76
2021/11/29 09:17:04;;;;;;;18.93;11.50;;;;;;;4.24;76.08;99629.97;5070009;28;20429;-76
2021/11/29 09:19:30;;;;;;;33.35;15.27;;;;;;;4.31;75.08;99634.22;5076562;28;20399;-76
2021/11/29 09:21:55;;;;;;;27.23;14.23;;;;;;;4.25;75.34;99636.97;5077326;28;20414;-76
2021/11/29 09:24:59;;;;;;;;;;;;;;;;;;;;;
2021/11/29 09:27:28;;;;;;;23.13;12.05;;;;;;;4.13;76.20;99639.56;5075505;28;20394;-76
2021/11/29 09:29:53;;;;;;;32.65;14.77;;;;;;;4.00;76.23;99645.06;5085002;28;20376;-76
2021/11/29 09:32:38;;;;;;;27.30;13.70;;;;;;;3.70;76.74;99644.94;5071753;28;20398;-76
2021/11/29 09:35:10;;;;;;;15.83;10.73;;;;;;;3.80;76.44;99642.59;5073275;28;20396;-76
2021/11/29 09:37:37;;;;;;;19.73;12.23;;;;;;;3.82;76.45;99653.91;5081220;28;20430;-76
2021/11/29 09:40:05;;;;;;;44.10;18.45;;;;;;;3.85;77.04;99655.34;5082960;28;20494;-76
2021/11/29 09:42:31;;;;;;;31.58;13.02;;;;;;;3.86;77.12;99665.81;5092651;28;20439;-76
2021/11/29 09:44:56;;;;;;;33.97;13.80;;;;;;;3.94;76.63;99660.19;5076232;28;20384;-77
2021/11/29 09:47:22;;;;;;;35.07;15.90;;;;;;;3.99;76.93;99660.34;5090421;28;20467;-76
2021/11/29 09:49:50;;;;;;;33.55;14.35;;;;;;;4.03;77.06;99669.59;5079598;28;20387;-77
2021/11/29 09:52:15;;;;;;;24.42;12.50;;;;;;;4.03;76.97;99671.44;5085631;28;20773;-77
2021/11/29 09:54:42;;;;;;;31.60;12.95;;;;;;;4.19;76.46;99660.94;5073510;28;20921;-76
2021/11/29 09:57:07;;;;;;;35.63;14.90;;;;;;;4.17;76.38;99664.91;5068552;28;20882;-76
2021/11/29 09:59:32;;;;;;;21.33;10.63;;;;;;;4.16;76.63;99663.25;5081579;28;20447;-76
2021/11/29 10:01:58;;;;;;;19.27;10.20;;;;;;;4.16;76.07;99661.41;5079329;28;20426;-76
2021/11/29 10:04:24;;;;;;;24.17;11.07;;;;;;;4.13;75.08;99656.47;5086497;28;20526;-77
2021/11/29 10:06:55;;;;;;;13.50;8.73;;;;;;;4.16;75.23;99658.72;5072722;28;20396;-76
2021/11/29 10:09:32;;;;;;;15.40;10.07;;;;;;;4.26;75.10;99658.19;5063160;28;20405;-75
2021/11/29 10:12:00;;;;;;;14.70;9.60;;;;;;;4.28;75.31;99660.66;5077543;28;20865;-76
2021/11/29 10:14:25;;;;;;;26.20;11.77;;;;;;;4.41;74.68;99660.53;5088415;28;20469;-76
2021/11/29 10:16:59;;;;;;;23.20;14.63;;;;;;;4.59;73.70;99668.53;5072246;28;21009;-76
2021/11/29 10:19:24;;;;;;;16.58;9.95;;;;;;;4.70;72.29;99665.09;5076307;28;20875;-77
2021/11/29 10:21:50;;;;;;;16.10;8.77;;;;;;;4.61;72.98;99677.19;5075949;28;20422;-76
2021/11/29 10:24:19;;;;;;;13.73;9.00;;;;;;;4.56;73.83;99688.59;5053560;28;20964;-76
2021/11/29 10:26:52;;;;;;;10.40;7.15;;;;;;;4.70;72.81;99687.41;5078179;28;20922;-77
2021/11/29 10:29:18;;;;;;;10.20;7.70;;;;;;;4.69;72.92;99685.75;5062519;28;20770;-77
2021/11/29 10:31:47;;;;;;;15.65;9.25;;;;;;;4.58;73.04;99685.69;5085913;28;20398;-77
2021/11/29 10:37:26;;;;;;;23.40;11.55;;;;;;;4.25;72.96;99687.94;5057573;28;20793;-77
2021/11/29 10:39:52;;;;;;;20.60;11.50;;;;;;;4.14;73.92;99687.63;5086973;28;20560;-76
2021/11/29 10:42:17;;;;;;;24.57;10.80;;;;;;;4.08;73.17;99693.06;5072868;28;20465;-76
2021/11/29 10:45:20;;;;;;;;;;;;;;;;;;;;;
2021/11/29 10:47:53;;;;;;;38.92;16.40;;;;;;;4.06;73.90;99698.63;5047975;28;20415;-76
2021/11/29 10:50:28;;;;;;;33.63;14.63;;;;;;;4.11;73.54;99692.63;5071537;28;20785;-76
2021/11/29 10:53:11;;;;;;;18.10;9.95;;;;;;;4.14;72.92;99689.47;5083024;28;20394;-76
2021/11/29 10:55:59;;;;;;;28.25;11.73;;;;;;;4.12;72.46;99687.00;5069815;28;20394;-76
2021/11/29 10:58:27;;;;;;;52.15;19.60;;;;;;;4.10;73.44;99693.66;5082765;28;20917;-77
2021/11/29 11:00:55;;;;;;;22.98;11.02;;;;;;;4.16;72.50;99700.78;5078826;28;20412;-77
2021/11/29 11:03:20;;;;;;;35.55;15.57;;;;;;;4.25;72.36;99694.09;5071727;28;20746;-77
2021/11/29 11:06:00;;;;;;;31.83;15.30;;;;;;;4.03;72.58;99706.28;5069320;28;20396;-76
2021/11/29 11:09:09;;;;;;;20.03;13.07;;;;;;;4.00;72.19;99710.25;5071483;28;20847;-76
2021/11/29 11:11:37;;;;;;;31.80;13.10;;;;;;;3.97;72.25;99702.63;5090868;28;20394;-76
2021/11/29 11:14:13;;;;;;;19.80;10.98;;;;;;;3.90;72.67;99706.41;5084635;28;20392;-76
2021/11/29 11:16:52;;;;;;;24.08;12.43;;;;;;;3.83;72.42;99719.88;5071193;28;20479;-76
2021/11/29 11:19:27;;;;;;;19.35;11.38;;;;;;;3.82;73.08;99722.78;5077356;28;20402;-76
2021/11/29 11:22:01;;;;;;;18.83;10.57;;;;;;;3.83;72.32;99709.16;5073150;28;20398;-76
2021/11/29 11:24:33;;;;;;;26.77;13.35;;;;;;;3.84;72.63;99726.88;5091575;28;20382;-76
2021/11/29 11:26:59;;;;;;;17.67;9.93;;;;;;;4.07;72.08;99729.78;5082733;28;20428;-76
2021/11/29 11:29:44;;;;;;;14.18;9.63;;;;;;;4.35;70.58;99729.28;5084919;28;20404;-76
2021/11/29 11:32:16;;;;;;;15.82;10.38;;;;;;;4.45;70.98;99721.53;5074162;28;20443;-77
2021/11/29 11:35:03;;;;;;;18.33;10.45;;;;;;;4.43;70.86;99723.63;5053190;28;20465;-76
2021/11/29 11:37:33;;;;;;;10.77;7.88;;;;;;;4.05;71.40;99715.75;5070505;28;20867;-76